Terminal Aerodrome Forecast
Issued by NWS Sioux Falls, SD

Home | Current Version | Previous Version | Graphics & Text | Print | Product List | Glossary Off
Versions: 1 2 3 4 5 6 7 8 9 10 11 12 13 14

000
FTUS43 KFSD 300910 AAA
TAFSUX
TAF AMD
KSUX 300910Z 3009/3106 10004KT 4SM BR SKC
      TEMPO 3009/3013 1/2SM FG
     FM301400 14004KT P6SM BKN250=

USA.gov is the U.S. government's official web portal to all federal, state and local government web resources and services.